Time;durP1;ratioP1;P1;durP2;ratioP2;P2;SDS_P1;SDS_P2;PMS_P1;PMS_P2;Temp;Humidity;BMP_temperature;BMP_pressure;BME280_temperature;BME280_humidity;BME280_pressure;Samples;Min_cycle;Max_cycle;Signal;HPM_P1;HPM_P2
2023/04/04 00:02:01;;;;;;;1.80;1.10;;;5.30;21.40;;;;;;4994146;28;20181;-72
2023/04/04 00:04:27;;;;;;;1.90;1.10;;;5.60;20.70;;;;;;4999128;28;20580;-72
2023/04/04 00:06:53;;;;;;;1.80;1.10;;;5.40;20.90;;;;;;4991800;28;20284;-71
2023/04/04 00:09:18;;;;;;;2.03;1.25;;;5.40;20.60;;;;;;4996191;28;20409;-72
2023/04/04 00:11:47;;;;;;;1.90;1.10;;;5.60;20.20;;;;;;4993408;28;20208;-72
2023/04/04 00:14:13;;;;;;;2.10;1.30;;;5.70;20.40;;;;;;5002273;28;20574;-72
2023/04/04 00:16:38;;;;;;;1.93;1.20;;;5.80;20.60;;;;;;4995724;28;20189;-71
2023/04/04 00:19:04;;;;;;;1.90;1.10;;;5.90;20.90;;;;;;4995784;28;20181;-71
2023/04/04 00:21:30;;;;;;;2.10;1.40;;;5.80;20.30;;;;;;4996698;28;20596;-70
2023/04/04 00:23:56;;;;;;;2.00;1.23;;;5.60;20.40;;;;;;4994475;28;20672;-71
2023/04/04 00:26:23;;;;;;;2.10;1.30;;;5.20;21.40;;;;;;4994510;28;20669;-72
2023/04/04 00:28:48;;;;;;;2.20;1.40;;;5.20;21.80;;;;;;5001013;28;20236;-72
2023/04/04 00:31:14;;;;;;;1.97;1.20;;;4.90;22.30;;;;;;4992605;28;20637;-71
2023/04/04 00:33:40;;;;;;;2.00;1.20;;;5.10;21.90;;;;;;4988037;28;20237;-71
2023/04/04 00:36:06;;;;;;;1.90;1.17;;;5.50;21.00;;;;;;5001928;28;20200;-69
2023/04/04 00:38:31;;;;;;;1.90;1.20;;;5.50;21.00;;;;;;4998795;28;20208;-70
2023/04/04 00:40:57;;;;;;;2.00;1.30;;;5.60;20.90;;;;;;5006517;28;20285;-69
2023/04/04 00:43:23;;;;;;;2.00;1.20;;;5.60;20.70;;;;;;4994179;28;20178;-69
2023/04/04 00:45:50;;;;;;;2.00;1.20;;;5.50;22.50;;;;;;4992514;28;20174;-70
2023/04/04 00:48:16;;;;;;;2.20;1.40;;;5.50;21.50;;;;;;4987399;28;20616;-70
2023/04/04 00:50:42;;;;;;;2.00;1.30;;;5.20;21.30;;;;;;4999620;28;20190;-70
2023/04/04 00:53:08;;;;;;;1.90;1.17;;;5.30;21.30;;;;;;4997979;28;20212;-70
2023/04/04 00:55:37;;;;;;;2.03;1.30;;;5.30;21.60;;;;;;4997286;28;20193;-70
2023/04/04 00:58:03;;;;;;;2.00;1.20;;;5.30;22.90;;;;;;4991057;28;20582;-69
2023/04/04 01:00:29;;;;;;;2.33;1.50;;;5.50;21.10;;;;;;5002084;28;20280;-69
2023/04/04 01:02:55;;;;;;;1.90;1.20;;;5.40;21.50;;;;;;5002421;28;20453;-70
2023/04/04 01:05:21;;;;;;;2.00;1.20;;;5.60;21.20;;;;;;4992415;28;20449;-69
2023/04/04 01:07:47;;;;;;;1.93;1.20;;;5.20;21.40;;;;;;5002068;28;20212;-70
2023/04/04 01:10:12;;;;;;;2.03;1.27;;;5.50;21.40;;;;;;4998446;28;20185;-71
2023/04/04 01:12:39;;;;;;;2.10;1.40;;;5.60;21.70;;;;;;5004404;28;20465;-71
2023/04/04 01:15:05;;;;;;;2.00;1.20;;;5.40;22.10;;;;;;4999112;28;20208;-71
2023/04/04 01:17:31;;;;;;;2.00;1.20;;;5.50;21.70;;;;;;4993627;28;20236;-71
2023/04/04 01:20:19;;;;;;;1.90;1.20;;;5.70;21.70;;;;;;4990937;28;20443;-71
2023/04/04 01:22:48;;;;;;;2.15;1.40;;;5.50;21.40;;;;;;4993696;28;20178;-71
2023/04/04 01:25:15;;;;;;;1.90;1.10;;;5.30;22.40;;;;;;5001021;28;20193;-71
2023/04/04 01:27:41;;;;;;;1.88;1.10;;;5.10;22.20;;;;;;4999099;28;20645;-70
2023/04/04 01:30:07;;;;;;;1.90;1.20;;;4.90;22.40;;;;;;5007577;28;20201;-70
2023/04/04 01:32:57;;;;;;;2.05;1.33;;;5.10;22.10;;;;;;5011218;28;20420;-69
2023/04/04 01:35:37;;;;;;;2.10;1.33;;;5.50;22.30;;;;;;4990024;28;20281;-71
2023/04/04 01:38:25;;;;;;;2.00;1.20;;;4.90;23.10;;;;;;5002540;28;20200;-72
2023/04/04 01:40:56;;;;;;;1.90;1.10;;;5.10;22.20;;;;;;5015673;28;20185;-70
2023/04/04 01:43:22;;;;;;;1.95;1.20;;;4.90;22.80;;;;;;5015254;28;20192;-69
2023/04/04 01:45:48;;;;;;;1.93;1.10;;;5.10;22.30;;;;;;5006169;28;20178;-70
2023/04/04 01:48:15;;;;;;;2.10;1.40;;;5.40;22.40;;;;;;4995581;28;20893;-70
2023/04/04 01:50:41;;;;;;;2.05;1.20;;;5.50;22.20;;;;;;4994670;28;20268;-70
2023/04/04 01:53:06;;;;;;;1.90;1.10;;;5.20;21.90;;;;;;4998443;28;20289;-71
2023/04/04 01:55:32;;;;;;;1.97;1.20;;;5.00;23.60;;;;;;5011867;28;20173;-70
2023/04/04 01:57:58;;;;;;;1.90;1.10;;;5.30;23.60;;;;;;5002039;28;20190;-70
2023/04/04 02:00:23;;;;;;;2.40;1.50;;;5.30;23.70;;;;;;5012763;28;20181;-70
2023/04/04 02:02:49;;;;;;;2.00;1.20;;;5.60;22.20;;;;;;5014888;28;20787;-71
2023/04/04 02:05:15;;;;;;;2.00;1.20;;;5.70;21.80;;;;;;5006128;28;20181;-71
2023/04/04 02:07:40;;;;;;;2.00;1.20;;;5.40;23.50;;;;;;5004047;28;20239;-70
2023/04/04 02:10:06;;;;;;;1.90;1.10;;;5.60;22.70;;;;;;5006771;28;20174;-71
2023/04/04 02:12:32;;;;;;;1.92;1.17;;;5.70;23.50;;;;;;5014666;28;20211;-71
2023/04/04 02:14:58;;;;;;;1.90;1.10;;;5.70;23.00;;;;;;5014811;28;20213;-70
2023/04/04 02:17:25;;;;;;;2.87;1.70;;;5.60;23.30;;;;;;5009130;28;20209;-71
2023/04/04 02:19:51;;;;;;;2.10;1.30;;;5.30;23.10;;;;;;5002304;28;20174;-69
2023/04/04 02:22:17;;;;;;;2.00;1.17;;;5.50;23.20;;;;;;5002848;28;20213;-70
2023/04/04 02:24:42;;;;;;;2.00;1.10;;;5.30;23.80;;;;;;5014478;28;20205;-71
2023/04/04 02:27:08;;;;;;;2.00;1.10;;;5.10;23.00;;;;;;5014661;28;20702;-71
2023/04/04 02:29:34;;;;;;;2.10;1.30;;;5.00;24.90;;;;;;5002669;28;20189;-71
2023/04/04 02:31:59;;;;;;;2.30;1.50;;;5.20;24.50;;;;;;5008951;28;20537;-70
2023/04/04 02:34:25;;;;;;;2.10;1.30;;;5.30;24.40;;;;;;5014186;28;20205;-70
2023/04/04 02:36:51;;;;;;;2.00;1.20;;;5.30;24.90;;;;;;5010665;28;20967;-71
2023/04/04 02:39:16;;;;;;;2.10;1.20;;;5.40;24.60;;;;;;4983438;28;20607;-70
2023/04/04 02:41:42;;;;;;;2.10;1.20;;;5.40;24.80;;;;;;5006353;28;20235;-70
2023/04/04 02:44:08;;;;;;;2.10;1.27;;;5.40;25.20;;;;;;5005171;28;20186;-71
2023/04/04 02:46:34;;;;;;;2.00;1.10;;;5.60;24.00;;;;;;5006377;28;20169;-71
2023/04/04 02:49:00;;;;;;;2.10;1.20;;;5.20;23.70;;;;;;5009451;28;20189;-70
2023/04/04 02:51:26;;;;;;;2.00;1.20;;;5.10;23.40;;;;;;5004377;28;20212;-71
2023/04/04 02:53:52;;;;;;;2.00;1.10;;;5.30;23.00;;;;;;5014000;28;20205;-71
2023/04/04 02:56:18;;;;;;;2.00;1.20;;;5.40;22.60;;;;;;5014151;28;20409;-70
2023/04/04 02:58:43;;;;;;;2.07;1.20;;;5.40;24.00;;;;;;5013808;28;20189;-71
2023/04/04 03:01:09;;;;;;;2.00;1.10;;;5.20;24.20;;;;;;5000995;28;20188;-71
2023/04/04 03:03:35;;;;;;;2.00;1.20;;;5.10;23.50;;;;;;5005274;28;20177;-70
2023/04/04 03:06:01;;;;;;;2.00;1.10;;;5.10;23.90;;;;;;5008239;28;20593;-70
2023/04/04 03:08:27;;;;;;;2.40;1.43;;;5.10;23.10;;;;;;5005631;28;20204;-71
2023/04/04 03:10:52;;;;;;;2.65;1.80;;;5.10;25.20;;;;;;5004625;28;20177;-71
2023/04/04 03:13:18;;;;;;;2.00;1.20;;;5.10;23.30;;;;;;5005525;28;20211;-71
2023/04/04 03:15:44;;;;;;;2.10;1.20;;;5.10;23.10;;;;;;5006134;28;20517;-71
2023/04/04 03:18:10;;;;;;;2.00;1.10;;;5.10;23.20;;;;;;5013789;28;20192;-71
2023/04/04 03:20:36;;;;;;;2.00;1.10;;;5.30;23.50;;;;;;5012974;28;20174;-68
2023/04/04 03:23:02;;;;;;;2.40;1.50;;;5.50;22.90;;;;;;4994053;28;20182;-71
2023/04/04 03:25:27;;;;;;;2.00;1.13;;;5.40;23.20;;;;;;5009959;28;20427;-70
2023/04/04 03:27:53;;;;;;;2.03;1.30;;;5.00;23.50;;;;;;5006708;28;20991;-70
2023/04/04 03:30:19;;;;;;;2.10;1.27;;;4.90;24.40;;;;;;4991423;28;20545;-70
2023/04/04 03:32:44;;;;;;;2.10;1.30;;;5.20;24.80;;;;;;4996258;28;20205;-71
2023/04/04 03:35:10;;;;;;;2.00;1.10;;;5.30;24.30;;;;;;5002587;28;20585;-71
2023/04/04 03:37:36;;;;;;;2.58;1.33;;;5.10;23.30;;;;;;5002577;28;20200;-71
2023/04/04 03:40:02;;;;;;;2.00;1.20;;;5.10;23.50;;;;;;4990594;28;20726;-70
2023/04/04 03:42:32;;;;;;;2.00;1.20;;;5.10;24.00;;;;;;4998990;28;20436;-70
2023/04/04 03:44:58;;;;;;;2.10;1.20;;;5.00;24.40;;;;;;5005931;28;20464;-71
2023/04/04 03:47:23;;;;;;;2.10;1.10;;;5.20;23.90;;;;;;4995921;28;20229;-70
2023/04/04 03:49:51;;;;;;;2.10;1.20;;;5.20;24.20;;;;;;4993466;28;20174;-70
2023/04/04 03:52:17;;;;;;;2.08;1.20;;;5.30;24.10;;;;;;4999591;28;20178;-71
2023/04/04 03:54:43;;;;;;;2.30;1.40;;;5.00;24.30;;;;;;4997037;28;20206;-71
2023/04/04 03:57:09;;;;;;;2.20;1.30;;;4.80;24.50;;;;;;5001387;28;20194;-71
2023/04/04 03:59:34;;;;;;;2.20;1.30;;;4.80;25.00;;;;;;4987951;28;20213;-71
2023/04/04 04:02:00;;;;;;;2.40;1.50;;;4.90;24.70;;;;;;5000102;28;20184;-71
2023/04/04 04:04:25;;;;;;;2.20;1.27;;;4.60;24.00;;;;;;4997482;28;20549;-70
2023/04/04 04:06:51;;;;;;;2.10;1.10;;;4.60;25.10;;;;;;5004640;28;20197;-71
2023/04/04 04:09:17;;;;;;;2.17;1.17;;;4.80;25.30;;;;;;5003929;28;20664;-70
2023/04/04 04:11:43;;;;;;;2.13;1.20;;;4.60;25.40;;;;;;5004998;28;20173;-71
2023/04/04 04:14:09;;;;;;;2.27;1.37;;;4.70;26.20;;;;;;5000189;28;20224;-70
2023/04/04 04:16:38;;;;;;;2.10;1.20;;;4.70;26.00;;;;;;4996819;28;20186;-70
2023/04/04 04:19:04;;;;;;;2.30;1.27;;;4.80;27.60;;;;;;5006011;28;20433;-68
2023/04/04 04:21:29;;;;;;;2.20;1.20;;;4.70;26.40;;;;;;4994321;28;20237;-71
2023/04/04 04:23:55;;;;;;;2.10;1.10;;;4.60;25.60;;;;;;5004168;28;20228;-70
2023/04/04 04:26:20;;;;;;;2.27;1.30;;;4.50;25.20;;;;;;5001286;28;20188;-70
2023/04/04 04:28:47;;;;;;;2.10;1.10;;;4.60;25.60;;;;;;5004868;28;20644;-69
2023/04/04 04:31:12;;;;;;;2.10;1.10;;;4.70;26.30;;;;;;5012540;28;20170;-70
2023/04/04 04:33:38;;;;;;;2.30;1.30;;;4.70;26.00;;;;;;5007380;28;20287;-71
2023/04/04 04:36:04;;;;;;;3.00;1.77;;;4.60;27.00;;;;;;4996140;28;20264;-70
2023/04/04 04:38:30;;;;;;;2.20;1.20;;;4.60;26.10;;;;;;5002795;28;20190;-71
2023/04/04 04:40:56;;;;;;;2.30;1.27;;;4.60;26.70;;;;;;5012503;28;20177;-71
2023/04/04 04:43:22;;;;;;;2.30;1.25;;;4.50;25.60;;;;;;5011929;28;20791;-71
2023/04/04 04:45:49;;;;;;;2.40;1.40;;;4.60;25.70;;;;;;5011305;28;20259;-71
2023/04/04 04:48:17;;;;;;;2.20;1.20;;;4.60;26.10;;;;;;4990193;28;20204;-70
2023/04/04 04:50:47;;;;;;;2.10;1.10;;;4.70;25.70;;;;;;4991938;28;20185;-71
2023/04/04 04:53:13;;;;;;;2.20;1.20;;;4.60;26.90;;;;;;4996547;28;20194;-71
2023/04/04 04:55:39;;;;;;;2.20;1.20;;;4.70;26.30;;;;;;5012038;28;20191;-69
2023/04/04 04:58:05;;;;;;;2.60;1.57;;;4.80;25.80;;;;;;5001591;28;20197;-71
2023/04/04 05:00:31;;;;;;;2.20;1.20;;;4.70;26.90;;;;;;5003711;28;20412;-70
2023/04/04 05:02:59;;;;;;;2.30;1.20;;;4.50;26.70;;;;;;5009143;28;20178;-70
2023/04/04 05:05:25;;;;;;;2.30;1.35;;;4.50;28.40;;;;;;5001052;28;20182;-69
2023/04/04 05:07:51;;;;;;;2.20;1.10;;;4.60;27.20;;;;;;4998289;28;20214;-70
2023/04/04 05:10:16;;;;;;;2.20;1.20;;;4.50;27.20;;;;;;4999777;28;20204;-71
2023/04/04 05:12:43;;;;;;;2.50;1.50;;;4.30;26.90;;;;;;5003293;28;20173;-71
2023/04/04 05:15:12;;;;;;;2.20;1.10;;;4.30;27.50;;;;;;5012086;28;20746;-70
2023/04/04 05:17:39;;;;;;;2.20;1.20;;;4.10;27.20;;;;;;5012069;28;20288;-71
2023/04/04 05:20:06;;;;;;;2.20;1.20;;;4.00;28.50;;;;;;4996808;28;20203;-71
2023/04/04 05:22:32;;;;;;;2.35;1.30;;;4.20;27.00;;;;;;5011576;28;20200;-71
2023/04/04 05:24:57;;;;;;;2.70;1.60;;;4.30;27.00;;;;;;5011911;28;20615;-70
2023/04/04 05:27:23;;;;;;;2.30;1.20;;;4.40;28.00;;;;;;5007324;28;20279;-70
2023/04/04 05:29:49;;;;;;;2.30;1.30;;;4.50;27.00;;;;;;4995319;28;20252;-70
2023/04/04 05:32:14;;;;;;;2.37;1.30;;;4.50;28.00;;;;;;4999651;28;20177;-71
2023/04/04 05:34:40;;;;;;;2.20;1.10;;;4.40;27.20;;;;;;5000629;28;20205;-71
2023/04/04 05:37:06;;;;;;;2.37;1.27;;;4.60;26.30;;;;;;4996110;28;20237;-70
2023/04/04 05:39:31;;;;;;;2.20;1.30;;;4.70;27.00;;;;;;5002513;28;20224;-71
2023/04/04 05:41:57;;;;;;;2.33;1.30;;;4.60;26.80;;;;;;5011753;28;20796;-71
2023/04/04 05:44:22;;;;;;;2.20;1.10;;;4.50;26.80;;;;;;5001258;28;20264;-71
2023/04/04 05:46:48;;;;;;;2.30;1.30;;;4.60;26.80;;;;;;5005973;28;20209;-70
2023/04/04 05:49:14;;;;;;;2.30;1.20;;;4.70;27.00;;;;;;4996853;28;20186;-71
2023/04/04 05:51:40;;;;;;;2.20;1.10;;;4.80;27.10;;;;;;5000036;28;20178;-70
2023/04/04 05:54:08;;;;;;;2.40;1.30;;;4.90;27.50;;;;;;4991176;28;20336;-71
2023/04/04 05:56:34;;;;;;;2.40;1.30;;;4.90;26.00;;;;;;5000915;28;20189;-71
2023/04/04 05:59:00;;;;;;;2.30;1.30;;;4.80;26.20;;;;;;5005854;22;20719;-66
2023/04/04 06:01:25;;;;;;;2.40;1.30;;;4.90;26.50;;;;;;4989466;28;20455;-68
2023/04/04 06:03:51;;;;;;;2.33;1.23;;;5.00;26.50;;;;;;4991239;28;20174;-68
2023/04/04 06:06:17;;;;;;;2.30;1.20;;;5.10;25.80;;;;;;4991810;28;20248;-68
2023/04/04 06:08:43;;;;;;;2.40;1.20;;;5.20;25.90;;;;;;4998814;28;20711;-67
2023/04/04 06:11:08;;;;;;;2.30;1.10;;;5.20;25.20;;;;;;4999049;28;20458;-68
2023/04/04 06:13:34;;;;;;;2.23;1.20;;;5.10;25.90;;;;;;4998184;28;21142;-67
2023/04/04 06:16:00;;;;;;;2.20;1.10;;;5.30;25.90;;;;;;4994900;28;20653;-68
2023/04/04 06:18:25;;;;;;;2.30;1.20;;;5.50;25.10;;;;;;4995921;28;20202;-68
2023/04/04 06:20:51;;;;;;;2.27;1.13;;;5.60;25.70;;;;;;5006248;28;20415;-68
2023/04/04 06:23:17;;;;;;;2.30;1.20;;;5.40;24.90;;;;;;5014331;28;20169;-67
2023/04/04 06:25:42;;;;;;;2.20;1.10;;;5.40;24.60;;;;;;5014510;28;20169;-68
2023/04/04 06:28:08;;;;;;;2.20;1.10;;;5.70;24.30;;;;;;5008834;28;20699;-68
2023/04/04 06:30:37;;;;;;;2.20;1.10;;;6.00;24.20;;;;;;5011713;28;20230;-68
2023/04/04 06:33:04;;;;;;;2.20;1.20;;;6.10;24.00;;;;;;5013978;28;20968;-68
2023/04/04 06:35:29;;;;;;;2.20;1.17;;;6.10;23.70;;;;;;5014330;28;20186;-68
2023/04/04 06:37:55;;;;;;;2.20;1.20;;;5.70;23.30;;;;;;5014316;28;20177;-68
2023/04/04 06:40:21;;;;;;;2.17;1.10;;;5.90;24.10;;;;;;5004215;28;20204;-68
2023/04/04 06:42:49;;;;;;;2.20;1.20;;;6.10;24.70;;;;;;5001538;28;20170;-67
2023/04/04 06:45:16;;;;;;;2.30;1.35;;;6.30;23.60;;;;;;4999421;28;20197;-72
2023/04/04 06:47:42;;;;;;;2.17;1.10;;;6.20;23.70;;;;;;5002697;28;20312;-80
2023/04/04 06:50:08;;;;;;;2.10;1.10;;;6.30;23.10;;;;;;4999955;28;20226;-80
2023/04/04 06:52:34;;;;;;;2.10;1.20;;;5.90;23.50;;;;;;5010822;28;20185;-80
2023/04/04 06:55:00;;;;;;;2.20;1.20;;;6.10;23.60;;;;;;4978256;28;20179;-73
2023/04/04 06:57:25;;;;;;;2.10;1.10;;;5.90;24.10;;;;;;4975464;28;20410;-70
2023/04/04 06:59:51;;;;;;;2.40;1.47;;;6.20;23.60;;;;;;4992500;28;20684;-70
2023/04/04 07:02:17;;;;;;;2.30;1.30;;;6.60;22.80;;;;;;4993145;28;20487;-71
2023/04/04 07:04:43;;;;;;;2.20;1.30;;;6.70;22.20;;;;;;5007838;28;20184;-71
2023/04/04 07:07:08;;;;;;;3.50;2.07;;;6.90;22.00;;;;;;4988534;28;20185;-71
2023/04/04 07:09:34;;;;;;;2.10;1.20;;;6.90;22.00;;;;;;4988950;28;20205;-71
2023/04/04 07:12:00;;;;;;;2.10;1.20;;;7.00;21.50;;;;;;4992360;28;20185;-70
2023/04/04 07:14:25;;;;;;;2.03;1.30;;;7.10;21.20;;;;;;4988356;28;20220;-71
2023/04/04 07:16:51;;;;;;;2.00;1.17;;;7.20;22.40;;;;;;4990656;28;20218;-71
2023/04/04 07:19:17;;;;;;;2.45;1.38;;;7.00;22.50;;;;;;5001525;28;20197;-70
2023/04/04 07:21:43;;;;;;;2.10;1.30;;;6.90;21.80;;;;;;5001419;28;20193;-71
2023/04/04 07:24:09;;;;;;;1.90;1.15;;;7.00;22.30;;;;;;4984882;28;20668;-69
2023/04/04 07:26:34;;;;;;;3.07;1.40;;;7.50;22.90;;;;;;5003501;28;20193;-69
2023/04/04 07:29:00;;;;;;;1.90;1.10;;;7.60;20.40;;;;;;4998642;28;20190;-68
2023/04/04 07:31:26;;;;;;;1.87;1.27;;;6.60;21.50;;;;;;4993732;28;20229;-69
2023/04/04 07:33:55;;;;;;;2.10;1.40;;;6.50;21.90;;;;;;4995052;28;20214;-69
2023/04/04 07:36:20;;;;;;;1.90;1.20;;;6.20;23.10;;;;;;4998918;28;20182;-69
2023/04/04 07:38:46;;;;;;;2.00;1.30;;;6.10;22.30;;;;;;4998865;28;20256;-68
2023/04/04 07:41:12;;;;;;;2.20;1.30;;;6.30;22.00;;;;;;4998116;28;20592;-69
2023/04/04 07:43:37;;;;;;;2.00;1.30;;;6.40;22.30;;;;;;5000901;28;20182;-69
2023/04/04 07:46:03;;;;;;;3.23;2.30;;;6.30;22.00;;;;;;4990678;28;20186;-68
2023/04/04 07:48:29;;;;;;;2.47;1.30;;;6.10;21.70;;;;;;5009751;28;20204;-69
2023/04/04 07:50:54;;;;;;;1.90;1.20;;;6.20;21.70;;;;;;4994245;28;20178;-69
2023/04/04 07:53:20;;;;;;;1.90;1.20;;;6.10;21.60;;;;;;5000046;28;20235;-69
2023/04/04 07:55:45;;;;;;;1.90;1.20;;;6.30;21.40;;;;;;4999896;28;20174;-69
2023/04/04 07:58:11;;;;;;;1.80;1.10;;;6.60;21.10;;;;;;4994746;28;20329;-68
2023/04/04 08:00:37;;;;;;;5.43;2.53;;;6.50;21.50;;;;;;4991913;28;20200;-68
2023/04/04 08:03:02;;;;;;;2.13;1.20;;;6.50;20.70;;;;;;4991104;28;20186;-69
2023/04/04 08:05:29;;;;;;;1.80;1.10;;;6.60;21.00;;;;;;4998137;28;20210;-69
2023/04/04 08:07:55;;;;;;;1.80;1.13;;;6.60;21.20;;;;;;4994651;28;20232;-68
2023/04/04 08:10:20;;;;;;;2.50;1.73;;;6.40;21.30;;;;;;4992947;28;20221;-69
2023/04/04 08:12:47;;;;;;;1.90;1.30;;;6.50;20.90;;;;;;4990552;28;20668;-69
2023/04/04 08:15:12;;;;;;;2.20;1.40;;;6.90;21.00;;;;;;4991345;28;20660;-72
2023/04/04 08:17:38;;;;;;;1.80;1.10;;;7.40;20.20;;;;;;5008311;28;20186;-68
2023/04/04 08:20:05;;;;;;;1.90;1.30;;;7.20;20.60;;;;;;4991454;28;20216;-69
2023/04/04 08:22:31;;;;;;;1.80;1.15;;;6.50;20.60;;;;;;4999420;28;20554;-69
2023/04/04 08:24:57;;;;;;;1.90;1.25;;;7.10;20.10;;;;;;4991609;28;20174;-69
2023/04/04 08:27:23;;;;;;;1.87;1.13;;;7.40;19.60;;;;;;5002353;28;20255;-69
2023/04/04 08:29:49;;;;;;;1.80;1.17;;;7.50;18.70;;;;;;4997955;28;20208;-69
2023/04/04 08:32:15;;;;;;;1.80;1.17;;;7.90;20.00;;;;;;4988323;28;20193;-67
2023/04/04 08:34:41;;;;;;;1.80;1.20;;;7.80;18.10;;;;;;4999209;28;20479;-71
2023/04/04 08:37:07;;;;;;;2.00;1.40;;;7.80;18.60;;;;;;4999737;28;20181;-75
2023/04/04 08:39:33;;;;;;;2.03;1.30;;;7.70;19.70;;;;;;5002937;28;20464;-73
2023/04/04 08:42:06;;;;;;;1.80;1.17;;;8.30;18.40;;;;;;5002096;28;20187;-71
2023/04/04 08:44:33;;;;;;;1.80;1.10;;;8.10;18.30;;;;;;5003497;28;20797;-71
2023/04/04 08:47:07;;;;;;;1.70;1.10;;;8.10;17.70;;;;;;4996424;28;20199;-70
2023/04/04 08:49:37;;;;;;;1.90;1.20;;;8.20;18.40;;;;;;5000915;28;20200;-73
2023/04/04 08:52:05;;;;;;;1.90;1.20;;;8.30;18.50;;;;;;5002161;28;20194;-71
2023/04/04 08:54:33;;;;;;;1.90;1.23;;;8.30;18.30;;;;;;4992754;28;20397;-70
2023/04/04 08:56:59;;;;;;;2.83;1.48;;;8.00;18.30;;;;;;4991130;28;20183;-70
2023/04/04 08:59:25;;;;;;;1.70;1.10;;;8.00;18.30;;;;;;4993892;28;20209;-70
2023/04/04 09:02:07;;;;;;;1.80;1.20;;;7.80;19.00;;;;;;5002949;28;20182;-70
2023/04/04 09:04:33;;;;;;;1.80;1.10;;;8.10;18.30;;;;;;4998857;28;20188;-70
2023/04/04 09:07:02;;;;;;;2.20;1.43;;;7.90;18.80;;;;;;4999639;28;20189;-67
2023/04/04 09:09:30;;;;;;;1.80;1.10;;;8.20;19.10;;;;;;5003072;28;20466;-71
2023/04/04 09:11:56;;;;;;;1.70;1.10;;;8.40;18.00;;;;;;5000203;28;20247;-70
2023/04/04 09:14:23;;;;;;;1.80;1.10;;;8.60;17.40;;;;;;4997737;28;20205;-70
2023/04/04 09:16:49;;;;;;;1.92;1.27;;;8.90;17.40;;;;;;4994833;28;20197;-69
2023/04/04 09:19:14;;;;;;;1.90;1.20;;;9.00;16.50;;;;;;4995147;28;20194;-71
2023/04/04 09:21:46;;;;;;;1.77;1.10;;;8.40;17.40;;;;;;4994606;28;20225;-71
2023/04/04 09:24:11;;;;;;;1.80;1.10;;;8.50;19.20;;;;;;4994880;28;20564;-70
2023/04/04 09:26:51;;;;;;;5.40;1.73;;;9.10;18.20;;;;;;4993084;28;20186;-71
2023/04/04 09:29:20;;;;;;;3.13;1.30;;;9.50;16.60;;;;;;4993590;28;20193;-71
2023/04/04 09:31:48;;;;;;;1.80;1.10;;;9.30;16.60;;;;;;4994514;28;20312;-71
2023/04/04 09:34:16;;;;;;;1.70;1.00;;;8.50;17.80;;;;;;4992760;28;20194;-69
2023/04/04 09:36:43;;;;;;;2.03;1.33;;;9.00;17.10;;;;;;4985217;28;20275;-71
2023/04/04 09:39:09;;;;;;;1.90;1.10;;;9.20;17.00;;;;;;4994301;28;20574;-71
2023/04/04 09:41:38;;;;;;;1.80;1.20;;;8.70;16.80;;;;;;4994442;28;20214;-70
2023/04/04 09:44:04;;;;;;;2.03;1.30;;;8.30;17.60;;;;;;4993281;28;20186;-70
2023/04/04 09:46:30;;;;;;;1.90;1.15;;;8.10;18.70;;;;;;4994498;28;20653;-68
2023/04/04 09:48:59;;;;;;;1.90;1.20;;;8.40;18.50;;;;;;4995475;28;20198;-70
2023/04/04 09:51:34;;;;;;;1.90;1.20;;;8.60;17.20;;;;;;4997853;28;20181;-70
2023/04/04 09:54:00;;;;;;;1.90;1.17;;;8.90;18.60;;;;;;4997633;28;20204;-68
2023/04/04 09:56:26;;;;;;;1.80;1.10;;;8.80;17.40;;;;;;4996668;28;20712;-70
2023/04/04 09:58:53;;;;;;;1.90;1.20;;;8.80;17.30;;;;;;4996614;28;20521;-70
2023/04/04 10:01:19;;;;;;;2.13;1.35;;;9.50;18.20;;;;;;4996847;28;20418;-69
2023/04/04 10:03:52;;;;;;;2.38;1.50;;;9.60;16.70;;;;;;4995831;28;20398;-70
2023/04/04 10:06:19;;;;;;;1.90;1.30;;;9.80;16.70;;;;;;4996709;28;20251;-70
2023/04/04 10:08:45;;;;;;;1.90;1.27;;;9.70;16.10;;;;;;4995884;28;20244;-70
2023/04/04 10:11:11;;;;;;;1.90;1.20;;;9.80;16.20;;;;;;4990629;28;20178;-71
2023/04/04 10:13:39;;;;;;;2.07;1.33;;;9.90;16.00;;;;;;4995488;28;20690;-68
2023/04/04 10:16:05;;;;;;;2.00;1.25;;;9.90;16.50;;;;;;4995972;28;20173;-68
2023/04/04 10:18:33;;;;;;;1.97;1.20;;;10.20;16.70;;;;;;4995404;28;20206;-68
2023/04/04 10:21:01;;;;;;;3.38;1.98;;;10.00;15.40;;;;;;4994595;28;20413;-68
2023/04/04 10:23:27;;;;;;;1.90;1.20;;;10.40;15.40;;;;;;4995534;28;20192;-68
2023/04/04 10:25:53;;;;;;;1.80;1.10;;;11.10;14.90;;;;;;4998242;28;20263;-68
2023/04/04 10:28:20;;;;;;;1.92;1.25;;;11.30;13.90;;;;;;4994050;28;20184;-68
2023/04/04 10:31:04;;;;;;;1.80;1.10;;;10.10;14.90;;;;;;4990740;28;20232;-68
2023/04/04 10:33:42;;;;;;;2.10;1.40;;;10.00;15.10;;;;;;5003778;28;20464;-69
2023/04/04 10:36:11;;;;;;;1.87;1.20;;;10.50;14.80;;;;;;5011341;28;20431;-68
2023/04/04 10:38:42;;;;;;;1.97;1.30;;;10.60;14.10;;;;;;4997532;28;20487;-68
2023/04/04 10:41:09;;;;;;;2.07;1.37;;;11.00;13.60;;;;;;5016286;28;20408;-68
2023/04/04 10:43:39;;;;;;;1.80;1.10;;;11.00;14.60;;;;;;4999288;28;20444;-68
2023/04/04 10:46:19;;;;;;;2.00;1.30;;;10.50;15.30;;;;;;5001526;28;20480;-68
2023/04/04 10:48:47;;;;;;;2.10;1.30;;;11.20;14.20;;;;;;4978575;28;21022;-68
2023/04/04 10:51:14;;;;;;;2.00;1.20;;;11.40;14.30;;;;;;4992858;28;20436;-68
2023/04/04 10:53:41;;;;;;;1.90;1.20;;;11.50;14.80;;;;;;4998354;28;20510;-68
2023/04/04 10:56:07;;;;;;;2.00;1.20;;;11.30;15.60;;;;;;4990159;28;20434;-68
2023/04/04 10:58:39;;;;;;;2.10;1.30;;;11.00;14.80;;;;;;4996615;28;20544;-68
2023/04/04 11:01:06;;;;;;;2.10;1.33;;;11.80;13.90;;;;;;5005147;28;20421;-68
2023/04/04 11:03:52;;;;;;;2.77;1.93;;;12.70;12.30;;;;;;5006176;28;20491;-68
2023/04/04 11:06:18;;;;;;;2.07;1.20;;;13.40;12.20;;;;;;4993992;28;20429;-68
2023/04/04 11:08:54;;;;;;;2.60;1.60;;;14.00;12.00;;;;;;4995389;28;20458;-68
2023/04/04 11:11:21;;;;;;;2.10;1.33;;;15.70;10.60;;;;;;4995445;28;20440;-68
2023/04/04 11:14:00;;;;;;;2.20;1.30;;;16.50;9.70;;;;;;4995444;28;20545;-68
2023/04/04 11:16:42;;;;;;;2.10;1.40;;;16.90;10.30;;;;;;4994004;28;20456;-69
2023/04/04 11:19:11;;;;;;;2.20;1.47;;;16.90;9.10;;;;;;4993755;28;20455;-68
2023/04/04 11:21:38;;;;;;;2.50;1.43;;;16.40;9.70;;;;;;4996144;28;20427;-68
2023/04/04 11:24:03;;;;;;;2.80;1.63;;;15.80;12.00;;;;;;4996631;28;20443;-69
2023/04/04 11:26:29;;;;;;;2.80;1.43;;;17.20;9.60;;;;;;4997231;28;20420;-69
2023/04/04 11:28:57;;;;;;;2.77;1.30;;;16.90;8.20;;;;;;4996070;28;20464;-69
2023/04/04 11:31:26;;;;;;;2.80;1.40;;;16.10;9.50;;;;;;4995905;28;20658;-69
2023/04/04 11:33:56;;;;;;;3.00;1.33;;;17.00;9.40;;;;;;4987954;28;20466;-69
2023/04/04 11:36:34;;;;;;;2.90;1.33;;;17.60;9.50;;;;;;4995537;28;20791;-69
2023/04/04 11:39:19;;;;;;;3.50;1.60;;;18.40;8.30;;;;;;4994109;28;20924;-69
2023/04/04 11:42:06;;;;;;;3.30;1.70;;;18.00;11.60;;;;;;4993095;28;20415;-69
2023/04/04 11:44:38;;;;;;;3.70;1.60;;;18.30;8.60;;;;;;4992247;28;20441;-68
2023/04/04 11:47:09;;;;;;;3.87;1.53;;;18.90;7.60;;;;;;4993332;28;20900;-68
2023/04/04 11:49:40;;;;;;;3.60;1.43;;;19.00;7.70;;;;;;4992964;28;20437;-68
2023/04/04 11:52:14;;;;;;;3.63;1.50;;;19.70;6.70;;;;;;4993352;28;20470;-69
2023/04/04 11:54:42;;;;;;;3.30;1.33;;;19.00;5.80;;;;;;4991926;28;20819;-70
2023/04/04 11:57:11;;;;;;;4.00;2.03;;;18.10;7.20;;;;;;4992929;28;20419;-70
2023/04/04 11:59:42;;;;;;;3.30;1.40;;;18.80;6.80;;;;;;4992765;28;20450;-69
2023/04/04 12:02:08;;;;;;;3.23;1.30;;;17.80;8.20;;;;;;4993463;28;20409;-69
2023/04/04 12:04:36;;;;;;;3.57;1.73;;;18.50;7.50;;;;;;4994240;28;20446;-69
2023/04/04 12:07:05;;;;;;;3.60;1.50;;;18.10;6.80;;;;;;4992830;28;20894;-69
2023/04/04 12:09:31;;;;;;;3.67;1.60;;;19.10;7.20;;;;;;4993620;28;20850;-69
2023/04/04 12:11:57;;;;;;;5.40;2.30;;;19.60;8.00;;;;;;4993798;28;20922;-69
2023/04/04 12:14:24;;;;;;;3.50;1.60;;;20.10;7.10;;;;;;4992373;28;20467;-69
2023/04/04 12:16:54;;;;;;;4.47;1.60;;;20.10;5.90;;;;;;4991736;28;20824;-70
2023/04/04 12:21:49;;;;;;;3.50;1.40;;;19.70;6.80;;;;;;4985606;28;20479;-72
2023/04/04 12:24:15;;;;;;;3.40;1.40;;;20.40;5.40;;;;;;4992281;28;20415;-71
2023/04/04 12:26:44;;;;;;;4.27;1.70;;;21.30;6.10;;;;;;4996475;28;20423;-71
2023/04/04 12:29:12;;;;;;;4.00;1.40;;;20.40;5.40;;;;;;5000635;28;20429;-73
2023/04/04 12:31:41;;;;;;;4.67;1.60;;;21.00;5.80;;;;;;5002974;28;21042;-71
2023/04/04 12:34:20;;;;;;;3.63;1.40;;;19.70;4.90;;;;;;5012037;28;20539;-71
2023/04/04 12:36:47;;;;;;;4.03;1.73;;;20.20;5.40;;;;;;5012069;28;20405;-72
2023/04/04 12:39:15;;;;;;;3.67;1.40;;;19.50;7.00;;;;;;5012024;28;20412;-72
2023/04/04 12:42:20;;;;;;;5.00;1.87;;;21.10;8.20;;;;;;4994920;28;20829;-72
2023/04/04 12:44:46;;;;;;;3.93;1.50;;;22.70;3.70;;;;;;4946668;28;20431;-72
2023/04/04 12:47:14;;;;;;;9.00;1.50;;;23.20;3.50;;;;;;4962027;28;20450;-72
2023/04/04 12:49:47;;;;;;;4.43;1.67;;;23.70;5.40;;;;;;4962153;28;20194;-72
2023/04/04 12:52:19;;;;;;;4.40;1.60;;;23.70;3.60;;;;;;4964559;28;20441;-75
2023/04/04 12:54:46;;;;;;;4.60;1.80;;;24.10;4.00;;;;;;4962666;28;20461;-75
2023/04/04 12:57:17;;;;;;;4.50;1.67;;;24.10;2.80;;;;;;4970381;28;20453;-72
2023/04/04 12:59:48;;;;;;;4.33;1.80;;;24.10;2.30;;;;;;4954073;28;20813;-72